TimeCST,TemperatureF,Dew PointF,Humidity,Sea Level PressureIn,VisibilityMPH,Wind Direction,Wind SpeedMPH,Gust SpeedMPH,PrecipitationIn,Events,Conditions,WindDirDegrees,DateUTC
12:13 AM,1.4,-2.2,85,30.41,10.0,Calm,Calm,-,N/A,,Clear,0,2012-12-26 06:13:00
12:33 AM,1.4,-2.2,85,30.40,10.0,Calm,Calm,-,N/A,,Scattered Clouds,0,2012-12-26 06:33:00
12:53 AM,1.4,-2.2,85,30.40,10.0,Calm,Calm,-,N/A,,Overcast,0,2012-12-26 06:53:00
1:14 AM,1.4,-2.2,85,30.39,10.0,Calm,Calm,-,N/A,,Overcast,0,2012-12-26 07:14:00
1:33 AM,1.4,-2.2,85,30.40,10.0,Calm,Calm,-,N/A,,Overcast,0,2012-12-26 07:33:00
1:53 AM,3.2,-2.2,78,30.39,10.0,Calm,Calm,-,N/A,,Overcast,0,2012-12-26 07:53:00
2:13 AM,3.2,-2.2,78,30.38,10.0,Calm,Calm,-,N/A,,Overcast,0,2012-12-26 08:13:00
2:33 AM,1.4,-2.2,85,30.39,10.0,Calm,Calm,-,N/A,,Overcast,0,2012-12-26 08:33:00
2:53 AM,3.2,-2.2,78,30.39,10.0,Calm,Calm,-,N/A,,Overcast,0,2012-12-26 08:53:00
3:13 AM,3.2,-2.2,78,30.38,10.0,Calm,Calm,-,N/A,,Overcast,0,2012-12-26 09:13:00
3:33 AM,3.2,-2.2,78,30.38,7.0,Calm,Calm,-,N/A,Snow,Light Snow,0,2012-12-26 09:33:00
3:53 AM,3.2,-2.2,78,30.37,4.0,Calm,Calm,-,N/A,Snow,Light Snow,0,2012-12-26 09:53:00
4:13 AM,3.2,-2.2,78,30.36,4.0,Calm,Calm,-,N/A,Snow,Light Snow,0,2012-12-26 10:13:00
4:33 AM,3.2,-0.4,85,30.36,3.0,Calm,Calm,-,N/A,Snow,Light Snow,0,2012-12-26 10:33:00
4:53 AM,3.2,-0.4,85,30.36,4.0,Calm,Calm,-,N/A,Snow,Light Snow,0,2012-12-26 10:53:00
5:13 AM,3.2,-0.4,85,30.35,4.0,Calm,Calm,-,N/A,Snow,Light Snow,0,2012-12-26 11:13:00
5:33 AM,3.2,-0.4,85,30.35,4.0,Calm,Calm,-,N/A,Snow,Light Snow,0,2012-12-26 11:33:00
5:53 AM,3.2,-0.4,85,30.34,5.0,Calm,Calm,-,N/A,Snow,Light Snow,0,2012-12-26 11:53:00
6:14 AM,3.2,-0.4,85,30.34,5.0,Calm,Calm,-,N/A,Snow,Light Snow,0,2012-12-26 12:14:00
6:33 AM,3.2,-0.4,85,30.34,4.0,Calm,Calm,-,N/A,Snow,Light Snow,0,2012-12-26 12:33:00
6:53 AM,3.2,-0.4,85,30.34,4.0,Calm,Calm,-,N/A,Snow,Light Snow,0,2012-12-26 12:53:00
7:13 AM,3.2,-0.4,85,30.34,4.0,Calm,Calm,-,N/A,Snow,Light Snow,0,2012-12-26 13:13:00
7:34 AM,3.2,-0.4,85,30.33,4.0,Calm,Calm,-,N/A,Snow,Light Snow,0,2012-12-26 13:34:00
7:53 AM,3.2,-0.4,85,30.33,4.0,Calm,Calm,-,N/A,Snow,Light Snow,0,2012-12-26 13:53:00
8:13 AM,1.4,-2.2,85,30.33,4.0,Calm,Calm,-,N/A,Snow,Light Snow,0,2012-12-26 14:13:00
8:33 AM,3.2,-0.4,85,30.33,4.0,Calm,Calm,-,N/A,Snow,Light Snow,0,2012-12-26 14:33:00
8:54 AM,3.2,-0.4,85,30.33,4.0,Calm,Calm,-,N/A,Snow,Light Snow,0,2012-12-26 14:54:00
9:13 AM,3.2,-0.4,85,30.33,10.0,Calm,Calm,-,N/A,Snow,Light Snow,0,2012-12-26 15:13:00
9:33 AM,3.2,-0.4,85,30.33,7.0,Calm,Calm,-,N/A,Snow,Light Snow,0,2012-12-26 15:33:00
9:53 AM,5.0,-0.4,78,30.33,5.0,Calm,Calm,-,N/A,Snow,Light Snow,0,2012-12-26 15:53:00
10:14 AM,6.8,-0.4,72,30.33,7.0,Calm,Calm,-,N/A,Snow,Light Snow,0,2012-12-26 16:14:00
10:33 AM,6.8,-0.4,72,30.33,7.0,Calm,Calm,-,N/A,,Overcast,0,2012-12-26 16:33:00
10:53 AM,6.8,-0.4,72,30.33,7.0,Calm,Calm,-,N/A,Snow,Light Snow,0,2012-12-26 16:53:00
11:13 AM,6.8,-0.4,72,30.32,7.0,Calm,Calm,-,N/A,Snow,Light Snow,0,2012-12-26 17:13:00
11:33 AM,6.8,-0.4,72,30.31,5.0,ENE,3.5,-,N/A,Snow,Light Snow,60,2012-12-26 17:33:00
11:53 AM,6.8,-0.4,72,30.30,5.0,Calm,Calm,-,N/A,Snow,Light Snow,0,2012-12-26 17:53:00
12:33 PM,8.6,1.4,73,30.30,10.0,ENE,3.5,-,N/A,,Overcast,70,2012-12-26 18:33:00
12:53 PM,8.6,1.4,73,30.29,7.0,Calm,Calm,-,N/A,,Overcast,0,2012-12-26 18:53:00
1:14 PM,8.6,1.4,73,30.28,10.0,NE,4.6,-,N/A,,Overcast,40,2012-12-26 19:14:00
1:33 PM,8.6,1.4,73,30.29,10.0,Calm,Calm,-,N/A,Snow,Light Snow,0,2012-12-26 19:33:00
1:53 PM,8.6,1.4,73,30.28,4.0,East,3.5,-,N/A,Snow,Light Snow,90,2012-12-26 19:53:00
2:14 PM,8.6,1.4,73,30.27,3.0,East,3.5,-,N/A,Snow,Light Snow,90,2012-12-26 20:14:00
2:34 PM,8.6,1.4,73,30.27,10.0,Calm,Calm,-,N/A,,Mostly Cloudy,0,2012-12-26 20:34:00
2:53 PM,8.6,1.4,73,30.27,10.0,Calm,Calm,-,N/A,,Scattered Clouds,0,2012-12-26 20:53:00
3:14 PM,8.6,1.4,73,30.27,10.0,Calm,Calm,-,N/A,,Clear,0,2012-12-26 21:14:00
3:34 PM,6.8,-0.4,72,30.27,10.0,Calm,Calm,-,N/A,,Clear,0,2012-12-26 21:34:00
3:53 PM,6.8,1.4,79,30.26,10.0,East,3.5,-,N/A,,Clear,90,2012-12-26 21:53:00
4:13 PM,6.8,-0.4,72,30.27,10.0,Calm,Calm,-,N/A,,Clear,0,2012-12-26 22:13:00
4:34 PM,5.0,-0.4,78,30.27,10.0,Calm,Calm,-,N/A,,Clear,0,2012-12-26 22:34:00
4:53 PM,5.0,-0.4,78,30.26,10.0,East,3.5,-,N/A,,Clear,100,2012-12-26 22:53:00
5:13 PM,1.4,-2.2,85,30.26,10.0,Calm,Calm,-,N/A,,Clear,0,2012-12-26 23:13:00
5:33 PM,1.4,-2.2,85,30.26,10.0,Calm,Calm,-,N/A,,Clear,0,2012-12-26 23:33:00
5:53 PM,1.4,-2.2,85,30.26,10.0,Calm,Calm,-,N/A,,Clear,0,2012-12-26 23:53:00
6:13 PM,-0.4,-2.2,92,30.25,10.0,Calm,Calm,-,N/A,,Scattered Clouds,0,2012-12-27 00:13:00
6:34 PM,-0.4,-5.8,78,30.25,10.0,Calm,Calm,-,N/A,,Overcast,0,2012-12-27 00:34:00
6:54 PM,-2.2,-5.8,85,30.25,10.0,Calm,Calm,-,N/A,,Overcast,0,2012-12-27 00:54:00
7:13 PM,-0.4,-5.8,78,30.26,10.0,Calm,Calm,-,N/A,,Overcast,0,2012-12-27 01:13:00
7:33 PM,-0.4,-4.0,85,30.25,10.0,Calm,Calm,-,N/A,,Overcast,0,2012-12-27 01:33:00
7:53 PM,1.4,-2.2,85,30.25,10.0,Calm,Calm,-,N/A,,Overcast,0,2012-12-27 01:53:00
8:14 PM,1.4,-2.2,85,30.25,10.0,Calm,Calm,-,N/A,,Overcast,0,2012-12-27 02:14:00
8:33 PM,1.4,-2.2,85,30.24,10.0,Calm,Calm,-,N/A,,Overcast,0,2012-12-27 02:33:00
8:53 PM,1.4,-2.2,85,30.24,10.0,Calm,Calm,-,N/A,,Overcast,0,2012-12-27 02:53:00
9:14 PM,1.4,-2.2,85,30.24,10.0,Calm,Calm,-,N/A,,Overcast,0,2012-12-27 03:14:00
9:33 PM,1.4,-2.2,85,30.23,10.0,Calm,Calm,-,N/A,,Overcast,0,2012-12-27 03:33:00
9:53 PM,1.4,-2.2,85,30.23,10.0,ENE,3.5,-,N/A,,Overcast,70,2012-12-27 03:53:00
10:14 PM,3.2,-0.4,85,30.23,10.0,Calm,Calm,-,N/A,,Overcast,0,2012-12-27 04:14:00
10:33 PM,3.2,-0.4,85,30.23,10.0,Calm,Calm,-,N/A,,Overcast,0,2012-12-27 04:33:00
10:53 PM,3.2,-0.4,85,30.23,10.0,Calm,Calm,-,N/A,,Overcast,0,2012-12-27 04:53:00
11:13 PM,3.2,-0.4,85,30.24,10.0,Calm,Calm,-,N/A,,Overcast,0,2012-12-27 05:13:00
11:34 PM,3.2,-0.4,85,30.24,10.0,Calm,Calm,-,N/A,,Overcast,0,2012-12-27 05:34:00
11:53 PM,3.2,-0.4,85,30.23,10.0,Calm,Calm,-,N/A,,Overcast,0,2012-12-27 05:53:00